sensor_id;sensor_type;location;lat;lon;timestamp;temperature;humidity
1075;DHT22;526;51.392;12.448;2023-05-09T00:01:33;9.60;97.30
1075;DHT22;526;51.392;12.448;2023-05-09T00:03:59;9.60;97.30
1075;DHT22;526;51.392;12.448;2023-05-09T00:06:25;9.50;97.30
1075;DHT22;526;51.392;12.448;2023-05-09T00:08:52;9.50;97.30
1075;DHT22;526;51.392;12.448;2023-05-09T00:11:18;9.50;97.30
1075;DHT22;526;51.392;12.448;2023-05-09T00:13:43;9.50;97.30
1075;DHT22;526;51.392;12.448;2023-05-09T00:16:09;9.50;97.30
1075;DHT22;526;51.392;12.448;2023-05-09T00:18:35;9.50;97.30
1075;DHT22;526;51.392;12.448;2023-05-09T00:21:02;9.40;97.30
1075;DHT22;526;51.392;12.448;2023-05-09T00:23:29;9.40;97.30
1075;DHT22;526;51.392;12.448;2023-05-09T00:25:55;9.40;97.30
1075;DHT22;526;51.392;12.448;2023-05-09T00:28:20;9.40;97.30
1075;DHT22;526;51.392;12.448;2023-05-09T00:30:46;9.30;97.30
1075;DHT22;526;51.392;12.448;2023-05-09T00:33:11;9.30;97.30
1075;DHT22;526;51.392;12.448;2023-05-09T00:35:37;9.20;97.30
1075;DHT22;526;51.392;12.448;2023-05-09T00:38:02;9.20;97.30
1075;DHT22;526;51.392;12.448;2023-05-09T00:40:28;9.20;97.30
1075;DHT22;526;51.392;12.448;2023-05-09T00:42:53;9.20;97.30
1075;DHT22;526;51.392;12.448;2023-05-09T00:45:22;9.20;97.30
1075;DHT22;526;51.392;12.448;2023-05-09T00:47:48;9.10;97.30
1075;DHT22;526;51.392;12.448;2023-05-09T00:50:13;9.10;97.30
1075;DHT22;526;51.392;12.448;2023-05-09T00:52:39;9.00;97.30
1075;DHT22;526;51.392;12.448;2023-05-09T00:55:05;9.00;97.30
1075;DHT22;526;51.392;12.448;2023-05-09T00:57:32;8.90;97.30
1075;DHT22;526;51.392;12.448;2023-05-09T00:59:59;8.80;97.30
1075;DHT22;526;51.392;12.448;2023-05-09T01:02:25;8.70;97.30
1075;DHT22;526;51.392;12.448;2023-05-09T01:04:51;8.60;97.30
1075;DHT22;526;51.392;12.448;2023-05-09T01:07:51;8.60;97.30
1075;DHT22;526;51.392;12.448;2023-05-09T01:10:22;8.50;97.30
1075;DHT22;526;51.392;12.448;2023-05-09T01:13:03;8.40;97.30
1075;DHT22;526;51.392;12.448;2023-05-09T01:15:38;8.40;97.30
1075;DHT22;526;51.392;12.448;2023-05-09T01:18:32;8.30;97.30
1075;DHT22;526;51.392;12.448;2023-05-09T01:21:29;8.30;97.30
1075;DHT22;526;51.392;12.448;2023-05-09T01:23:58;8.20;97.30
1075;DHT22;526;51.392;12.448;2023-05-09T01:29:20;8.10;97.30
1075;DHT22;526;51.392;12.448;2023-05-09T01:31:52;8.10;97.30
1075;DHT22;526;51.392;12.448;2023-05-09T01:34:21;8.00;97.30
1075;DHT22;526;51.392;12.448;2023-05-09T01:36:50;8.00;97.30
1075;DHT22;526;51.392;12.448;2023-05-09T01:39:16;7.90;97.30
1075;DHT22;526;51.392;12.448;2023-05-09T01:41:43;7.90;97.30
1075;DHT22;526;51.392;12.448;2023-05-09T01:44:11;7.80;97.30
1075;DHT22;526;51.392;12.448;2023-05-09T01:46:38;7.80;97.30
1075;DHT22;526;51.392;12.448;2023-05-09T01:49:06;7.70;97.30
1075;DHT22;526;51.392;12.448;2023-05-09T01:51:32;7.70;97.30
1075;DHT22;526;51.392;12.448;2023-05-09T01:54:00;7.70;97.30
1075;DHT22;526;51.392;12.448;2023-05-09T01:56:26;7.60;97.30
1075;DHT22;526;51.392;12.448;2023-05-09T01:58:53;7.60;97.30
1075;DHT22;526;51.392;12.448;2023-05-09T02:01:20;7.50;97.30
1075;DHT22;526;51.392;12.448;2023-05-09T02:03:47;7.50;97.30
1075;DHT22;526;51.392;12.448;2023-05-09T02:06:16;7.50;97.30
1075;DHT22;526;51.392;12.448;2023-05-09T02:08:43;7.40;97.30
1075;DHT22;526;51.392;12.448;2023-05-09T02:11:08;7.30;97.30
1075;DHT22;526;51.392;12.448;2023-05-09T02:13:34;7.30;97.30
1075;DHT22;526;51.392;12.448;2023-05-09T02:15:59;7.30;97.30
1075;DHT22;526;51.392;12.448;2023-05-09T02:18:25;7.30;97.30
1075;DHT22;526;51.392;12.448;2023-05-09T02:20:51;7.30;97.30
1075;DHT22;526;51.392;12.448;2023-05-09T02:23:18;7.30;97.30
1075;DHT22;526;51.392;12.448;2023-05-09T02:25:44;7.30;97.30
1075;DHT22;526;51.392;12.448;2023-05-09T02:28:11;7.30;97.30
1075;DHT22;526;51.392;12.448;2023-05-09T02:30:41;7.30;97.30
1075;DHT22;526;51.392;12.448;2023-05-09T02:33:10;7.30;97.30
1075;DHT22;526;51.392;12.448;2023-05-09T02:35:39;7.30;97.30
1075;DHT22;526;51.392;12.448;2023-05-09T02:38:06;7.30;97.30
1075;DHT22;526;51.392;12.448;2023-05-09T02:40:32;7.40;97.30
1075;DHT22;526;51.392;12.448;2023-05-09T02:42:58;7.40;97.30
1075;DHT22;526;51.392;12.448;2023-05-09T02:45:24;7.40;97.30
1075;DHT22;526;51.392;12.448;2023-05-09T02:47:49;7.40;97.30
1075;DHT22;526;51.392;12.448;2023-05-09T02:50:15;7.40;97.30
1075;DHT22;526;51.392;12.448;2023-05-09T02:52:40;7.50;97.30
1075;DHT22;526;51.392;12.448;2023-05-09T02:55:06;7.50;97.30
1075;DHT22;526;51.392;12.448;2023-05-09T02:57:32;7.50;97.30
1075;DHT22;526;51.392;12.448;2023-05-09T02:59:58;7.50;97.30
1075;DHT22;526;51.392;12.448;2023-05-09T03:02:24;7.50;97.30
1075;DHT22;526;51.392;12.448;2023-05-09T03:04:50;7.50;97.30
1075;DHT22;526;51.392;12.448;2023-05-09T03:07:15;7.40;97.30
1075;DHT22;526;51.392;12.448;2023-05-09T03:09:41;7.50;97.30
1075;DHT22;526;51.392;12.448;2023-05-09T03:12:06;7.40;97.30
1075;DHT22;526;51.392;12.448;2023-05-09T03:14:32;7.50;97.30
1075;DHT22;526;51.392;12.448;2023-05-09T03:16:57;7.40;97.30
1075;DHT22;526;51.392;12.448;2023-05-09T03:19:23;7.40;97.30
1075;DHT22;526;51.392;12.448;2023-05-09T03:21:48;7.40;97.30
1075;DHT22;526;51.392;12.448;2023-05-09T03:24:14;7.50;97.30
1075;DHT22;526;51.392;12.448;2023-05-09T03:26:40;7.40;97.30
1075;DHT22;526;51.392;12.448;2023-05-09T03:29:05;7.40;97.30
1075;DHT22;526;51.392;12.448;2023-05-09T03:31:31;7.40;97.30
1075;DHT22;526;51.392;12.448;2023-05-09T03:33:57;7.40;97.30
1075;DHT22;526;51.392;12.448;2023-05-09T03:36:22;7.40;97.30
1075;DHT22;526;51.392;12.448;2023-05-09T03:38:48;7.40;97.30
1075;DHT22;526;51.392;12.448;2023-05-09T03:41:15;7.30;97.30
1075;DHT22;526;51.392;12.448;2023-05-09T03:43:41;7.30;97.30
1075;DHT22;526;51.392;12.448;2023-05-09T03:46:06;7.30;97.30
1075;DHT22;526;51.392;12.448;2023-05-09T03:48:32;7.30;97.30
1075;DHT22;526;51.392;12.448;2023-05-09T03:50:57;7.30;97.30
1075;DHT22;526;51.392;12.448;2023-05-09T03:53:23;7.30;97.30
1075;DHT22;526;51.392;12.448;2023-05-09T03:55:48;7.20;97.30
1075;DHT22;526;51.392;12.448;2023-05-09T03:58:14;7.30;97.30
1075;DHT22;526;51.392;12.448;2023-05-09T04:00:40;7.20;97.30
1075;DHT22;526;51.392;12.448;2023-05-09T04:03:06;7.30;97.30
1075;DHT22;526;51.392;12.448;2023-05-09T04:05:32;7.30;97.30
1075;DHT22;526;51.392;12.448;2023-05-09T04:08:00;7.30;97.30
1075;DHT22;526;51.392;12.448;2023-05-09T04:10:26;7.30;97.30
1075;DHT22;526;51.392;12.448;2023-05-09T04:12:52;7.30;97.30
1075;DHT22;526;51.392;12.448;2023-05-09T04:15:17;7.30;97.30
1075;DHT22;526;51.392;12.448;2023-05-09T04:17:43;7.40;97.30
1075;DHT22;526;51.392;12.448;2023-05-09T04:20:09;7.40;97.30
1075;DHT22;526;51.392;12.448;2023-05-09T04:22:35;7.40;97.30
1075;DHT22;526;51.392;12.448;2023-05-09T04:25:01;7.40;97.30
1075;DHT22;526;51.392;12.448;2023-05-09T04:27:27;7.40;97.30
1075;DHT22;526;51.392;12.448;2023-05-09T04:29:53;7.40;97.30
1075;DHT22;526;51.392;12.448;2023-05-09T04:32:18;7.50;97.30
1075;DHT22;526;51.392;12.448;2023-05-09T04:34:45;7.50;97.30
1075;DHT22;526;51.392;12.448;2023-05-09T04:37:10;7.60;97.30
1075;DHT22;526;51.392;12.448;2023-05-09T04:39:37;7.60;97.30
1075;DHT22;526;51.392;12.448;2023-05-09T04:42:03;7.60;97.30
1075;DHT22;526;51.392;12.448;2023-05-09T04:44:29;7.70;97.30
1075;DHT22;526;51.392;12.448;2023-05-09T04:46:55;7.70;97.30
1075;DHT22;526;51.392;12.448;2023-05-09T04:49:22;7.80;97.30
1075;DHT22;526;51.392;12.448;2023-05-09T04:51:47;7.80;97.30
1075;DHT22;526;51.392;12.448;2023-05-09T04:54:13;7.90;97.30
1075;DHT22;526;51.392;12.448;2023-05-09T04:56:38;7.90;97.30
1075;DHT22;526;51.392;12.448;2023-05-09T04:59:04;7.90;97.30
1075;DHT22;526;51.392;12.448;2023-05-09T05:01:29;7.90;97.30
1075;DHT22;526;51.392;12.448;2023-05-09T05:03:55;7.90;97.30
1075;DHT22;526;51.392;12.448;2023-05-09T05:06:20;8.00;97.30
1075;DHT22;526;51.392;12.448;2023-05-09T05:08:46;8.00;97.30
1075;DHT22;526;51.392;12.448;2023-05-09T05:11:11;8.10;97.30
1075;DHT22;526;51.392;12.448;2023-05-09T05:13:37;8.10;97.30
1075;DHT22;526;51.392;12.448;2023-05-09T05:16:03;8.20;97.30
1075;DHT22;526;51.392;12.448;2023-05-09T05:18:29;8.30;97.30
1075;DHT22;526;51.392;12.448;2023-05-09T05:20:54;8.30;97.30
1075;DHT22;526;51.392;12.448;2023-05-09T05:23:20;8.40;97.30
1075;DHT22;526;51.392;12.448;2023-05-09T05:25:45;8.50;97.30
1075;DHT22;526;51.392;12.448;2023-05-09T05:28:11;8.60;97.30
1075;DHT22;526;51.392;12.448;2023-05-09T05:30:36;8.60;97.30
1075;DHT22;526;51.392;12.448;2023-05-09T05:33:02;8.70;97.30
1075;DHT22;526;51.392;12.448;2023-05-09T05:35:27;8.80;97.30
1075;DHT22;526;51.392;12.448;2023-05-09T05:37:53;8.90;97.30
1075;DHT22;526;51.392;12.448;2023-05-09T05:40:19;9.00;97.30
1075;DHT22;526;51.392;12.448;2023-05-09T05:42:45;9.00;97.30
1075;DHT22;526;51.392;12.448;2023-05-09T05:45:11;9.10;97.30
1075;DHT22;526;51.392;12.448;2023-05-09T05:47:36;9.20;97.10
1075;DHT22;526;51.392;12.448;2023-05-09T05:50:03;9.20;96.70
1075;DHT22;526;51.392;12.448;2023-05-09T05:52:31;9.30;96.70
1075;DHT22;526;51.392;12.448;2023-05-09T05:54:57;9.40;96.70
1075;DHT22;526;51.392;12.448;2023-05-09T05:57:23;9.50;96.40
1075;DHT22;526;51.392;12.448;2023-05-09T05:59:49;9.50;96.40
1075;DHT22;526;51.392;12.448;2023-05-09T06:02:16;9.60;96.40
1075;DHT22;526;51.392;12.448;2023-05-09T06:04:41;9.70;96.00
1075;DHT22;526;51.392;12.448;2023-05-09T06:07:07;9.80;96.10
1075;DHT22;526;51.392;12.448;2023-05-09T06:09:32;9.80;95.70
1075;DHT22;526;51.392;12.448;2023-05-09T06:11:58;9.90;95.90
1075;DHT22;526;51.392;12.448;2023-05-09T06:14:23;10.00;95.80
1075;DHT22;526;51.392;12.448;2023-05-09T06:16:49;10.10;95.70
1075;DHT22;526;51.392;12.448;2023-05-09T06:19:16;10.20;96.00
1075;DHT22;526;51.392;12.448;2023-05-09T06:21:42;10.30;95.60
1075;DHT22;526;51.392;12.448;2023-05-09T06:24:08;10.40;95.20
1075;DHT22;526;51.392;12.448;2023-05-09T06:26:33;10.50;94.90
1075;DHT22;526;51.392;12.448;2023-05-09T06:28:59;10.60;94.60
1075;DHT22;526;51.392;12.448;2023-05-09T06:31:24;10.70;93.90
1075;DHT22;526;51.392;12.448;2023-05-09T06:33:50;10.80;93.40
1075;DHT22;526;51.392;12.448;2023-05-09T06:36:15;10.90;93.70
1075;DHT22;526;51.392;12.448;2023-05-09T06:38:41;11.00;94.00
1075;DHT22;526;51.392;12.448;2023-05-09T06:41:06;11.20;93.70
1075;DHT22;526;51.392;12.448;2023-05-09T06:43:32;11.30;93.10
1075;DHT22;526;51.392;12.448;2023-05-09T06:45:57;11.40;92.80
1075;DHT22;526;51.392;12.448;2023-05-09T06:48:23;11.50;93.70
1075;DHT22;526;51.392;12.448;2023-05-09T06:50:49;11.70;92.80
1075;DHT22;526;51.392;12.448;2023-05-09T06:53:15;11.80;91.80
1075;DHT22;526;51.392;12.448;2023-05-09T06:55:41;11.90;91.40
1075;DHT22;526;51.392;12.448;2023-05-09T06:58:06;12.00;91.70
1075;DHT22;526;51.392;12.448;2023-05-09T07:00:32;12.10;91.70
1075;DHT22;526;51.392;12.448;2023-05-09T07:02:57;12.20;91.10
1075;DHT22;526;51.392;12.448;2023-05-09T07:05:23;12.40;91.20
1075;DHT22;526;51.392;12.448;2023-05-09T07:07:48;12.50;91.30
1075;DHT22;526;51.392;12.448;2023-05-09T07:10:14;12.60;90.70
1075;DHT22;526;51.392;12.448;2023-05-09T07:12:39;12.60;90.30
1075;DHT22;526;51.392;12.448;2023-05-09T07:15:06;12.70;89.10
1075;DHT22;526;51.392;12.448;2023-05-09T07:17:31;12.80;89.60
1075;DHT22;526;51.392;12.448;2023-05-09T07:19:57;12.90;88.80
1075;DHT22;526;51.392;12.448;2023-05-09T07:22:23;12.90;88.20
1075;DHT22;526;51.392;12.448;2023-05-09T07:24:48;13.10;88.30
1075;DHT22;526;51.392;12.448;2023-05-09T07:27:15;13.10;88.00
1075;DHT22;526;51.392;12.448;2023-05-09T07:29:40;13.30;88.00
1075;DHT22;526;51.392;12.448;2023-05-09T07:32:06;13.40;88.00
1075;DHT22;526;51.392;12.448;2023-05-09T07:34:31;13.50;87.90
1075;DHT22;526;51.392;12.448;2023-05-09T07:36:57;13.50;86.10
1075;DHT22;526;51.392;12.448;2023-05-09T07:39:22;13.50;85.90
1075;DHT22;526;51.392;12.448;2023-05-09T07:41:48;13.60;86.40
1075;DHT22;526;51.392;12.448;2023-05-09T07:44:14;13.70;86.80
1075;DHT22;526;51.392;12.448;2023-05-09T07:46:39;13.80;86.70
1075;DHT22;526;51.392;12.448;2023-05-09T07:49:06;14.00;86.60
1075;DHT22;526;51.392;12.448;2023-05-09T07:51:32;14.10;86.10
1075;DHT22;526;51.392;12.448;2023-05-09T07:53:57;14.20;85.30
1075;DHT22;526;51.392;12.448;2023-05-09T07:56:23;14.30;85.60
1075;DHT22;526;51.392;12.448;2023-05-09T07:58:48;14.40;84.80
1075;DHT22;526;51.392;12.448;2023-05-09T08:01:14;14.50;85.10
1075;DHT22;526;51.392;12.448;2023-05-09T08:03:39;14.60;85.10
1075;DHT22;526;51.392;12.448;2023-05-09T08:06:05;14.80;85.10
1075;DHT22;526;51.392;12.448;2023-05-09T08:08:31;14.90;84.00
1075;DHT22;526;51.392;12.448;2023-05-09T08:10:57;15.00;83.90
1075;DHT22;526;51.392;12.448;2023-05-09T08:13:22;15.10;84.20
1075;DHT22;526;51.392;12.448;2023-05-09T08:15:48;15.30;83.80
1075;DHT22;526;51.392;12.448;2023-05-09T08:18:14;15.40;83.70
1075;DHT22;526;51.392;12.448;2023-05-09T08:20:39;15.60;82.30
1075;DHT22;526;51.392;12.448;2023-05-09T08:23:05;15.60;82.50
1075;DHT22;526;51.392;12.448;2023-05-09T08:25:31;15.70;82.60
1075;DHT22;526;51.392;12.448;2023-05-09T08:27:57;15.80;83.00
1075;DHT22;526;51.392;12.448;2023-05-09T08:30:22;15.80;81.10
1075;DHT22;526;51.392;12.448;2023-05-09T08:32:48;15.90;82.50
1075;DHT22;526;51.392;12.448;2023-05-09T08:35:13;16.00;81.70
1075;DHT22;526;51.392;12.448;2023-05-09T08:37:39;16.10;83.20
1075;DHT22;526;51.392;12.448;2023-05-09T08:40:05;16.20;82.10
1075;DHT22;526;51.392;12.448;2023-05-09T08:42:36;16.30;81.00
1075;DHT22;526;51.392;12.448;2023-05-09T08:45:07;16.30;81.50
1075;DHT22;526;51.392;12.448;2023-05-09T08:47:36;16.40;82.60
1075;DHT22;526;51.392;12.448;2023-05-09T08:50:02;16.50;81.60
1075;DHT22;526;51.392;12.448;2023-05-09T08:52:30;16.60;81.70
1075;DHT22;526;51.392;12.448;2023-05-09T08:54:56;16.70;82.50
1075;DHT22;526;51.392;12.448;2023-05-09T08:57:22;16.90;81.40
1075;DHT22;526;51.392;12.448;2023-05-09T08:59:48;17.00;80.50
1075;DHT22;526;51.392;12.448;2023-05-09T09:02:13;17.10;79.00
1075;DHT22;526;51.392;12.448;2023-05-09T09:04:39;17.10;80.30
1075;DHT22;526;51.392;12.448;2023-05-09T09:07:05;17.20;80.80
1075;DHT22;526;51.392;12.448;2023-05-09T09:09:34;17.40;80.80
1075;DHT22;526;51.392;12.448;2023-05-09T09:12:04;17.50;80.40
1075;DHT22;526;51.392;12.448;2023-05-09T09:14:31;17.60;80.50
1075;DHT22;526;51.392;12.448;2023-05-09T09:17:00;17.80;78.70
1075;DHT22;526;51.392;12.448;2023-05-09T09:19:29;17.80;79.30
1075;DHT22;526;51.392;12.448;2023-05-09T09:21:58;17.90;79.10
1075;DHT22;526;51.392;12.448;2023-05-09T09:24:24;18.10;78.70
1075;DHT22;526;51.392;12.448;2023-05-09T09:26:50;18.30;79.40
1075;DHT22;526;51.392;12.448;2023-05-09T09:29:17;18.50;80.10
1075;DHT22;526;51.392;12.448;2023-05-09T09:31:47;18.50;79.00
1075;DHT22;526;51.392;12.448;2023-05-09T09:34:20;18.50;78.70
1075;DHT22;526;51.392;12.448;2023-05-09T09:36:46;18.50;78.90
1075;DHT22;526;51.392;12.448;2023-05-09T09:39:13;18.50;80.30
1075;DHT22;526;51.392;12.448;2023-05-09T09:41:39;18.60;79.80
1075;DHT22;526;51.392;12.448;2023-05-09T09:44:06;18.80;81.00
1075;DHT22;526;51.392;12.448;2023-05-09T09:46:47;18.90;78.00
1075;DHT22;526;51.392;12.448;2023-05-09T09:49:16;18.80;78.60
1075;DHT22;526;51.392;12.448;2023-05-09T09:51:42;18.80;76.70
1075;DHT22;526;51.392;12.448;2023-05-09T09:54:13;18.90;77.70
1075;DHT22;526;51.392;12.448;2023-05-09T09:56:46;18.90;77.10
1075;DHT22;526;51.392;12.448;2023-05-09T09:59:17;19.00;78.00
1075;DHT22;526;51.392;12.448;2023-05-09T10:04:22;19.30;78.60
1075;DHT22;526;51.392;12.448;2023-05-09T10:06:55;19.30;77.00
1075;DHT22;526;51.392;12.448;2023-05-09T10:09:22;19.40;78.50
1075;DHT22;526;51.392;12.448;2023-05-09T10:11:49;19.40;76.30
1075;DHT22;526;51.392;12.448;2023-05-09T10:14:18;19.50;77.80
1075;DHT22;526;51.392;12.448;2023-05-09T10:16:49;19.50;75.90
1075;DHT22;526;51.392;12.448;2023-05-09T10:19:20;19.50;77.40
1075;DHT22;526;51.392;12.448;2023-05-09T10:21:52;19.50;76.20
1075;DHT22;526;51.392;12.448;2023-05-09T10:24:28;19.50;75.50
1075;DHT22;526;51.392;12.448;2023-05-09T10:27:02;19.60;75.40
1075;DHT22;526;51.392;12.448;2023-05-09T10:29:31;19.60;74.50
1075;DHT22;526;51.392;12.448;2023-05-09T10:31:59;19.70;76.40
1075;DHT22;526;51.392;12.448;2023-05-09T10:34:32;19.90;74.70
1075;DHT22;526;51.392;12.448;2023-05-09T10:36:58;20.10;72.40
1075;DHT22;526;51.392;12.448;2023-05-09T10:39:25;20.20;73.80
1075;DHT22;526;51.392;12.448;2023-05-09T10:44:40;20.40;74.20
1075;DHT22;526;51.392;12.448;2023-05-09T10:47:06;20.40;72.00
1075;DHT22;526;51.392;12.448;2023-05-09T10:49:31;20.40;71.80
1075;DHT22;526;51.392;12.448;2023-05-09T10:51:57;20.30;71.80
1075;DHT22;526;51.392;12.448;2023-05-09T10:54:27;20.50;73.00
1075;DHT22;526;51.392;12.448;2023-05-09T10:56:53;20.70;72.80
1075;DHT22;526;51.392;12.448;2023-05-09T10:59:41;20.80;72.10
1075;DHT22;526;51.392;12.448;2023-05-09T11:02:17;20.90;72.40
1075;DHT22;526;51.392;12.448;2023-05-09T11:04:44;20.90;71.10
1075;DHT22;526;51.392;12.448;2023-05-09T11:07:26;21.10;72.20
1075;DHT22;526;51.392;12.448;2023-05-09T11:10:15;21.20;73.10
1075;DHT22;526;51.392;12.448;2023-05-09T11:12:59;21.40;71.40
1075;DHT22;526;51.392;12.448;2023-05-09T11:15:25;21.30;72.10
1075;DHT22;526;51.392;12.448;2023-05-09T11:18:05;21.50;71.90
1075;DHT22;526;51.392;12.448;2023-05-09T11:20:33;21.40;70.30
1075;DHT22;526;51.392;12.448;2023-05-09T11:23:00;21.50;71.70
1075;DHT22;526;51.392;12.448;2023-05-09T11:25:28;21.60;71.90
1075;DHT22;526;51.392;12.448;2023-05-09T11:27:57;21.60;71.00
1075;DHT22;526;51.392;12.448;2023-05-09T11:30:37;21.70;72.70
1075;DHT22;526;51.392;12.448;2023-05-09T11:33:04;21.70;72.00
1075;DHT22;526;51.392;12.448;2023-05-09T11:35:31;21.80;71.30
1075;DHT22;526;51.392;12.448;2023-05-09T11:38:05;21.90;71.00
1075;DHT22;526;51.392;12.448;2023-05-09T11:40:32;21.90;70.30
1075;DHT22;526;51.392;12.448;2023-05-09T11:42:59;21.90;72.00
1075;DHT22;526;51.392;12.448;2023-05-09T11:45:27;21.90;70.40
1075;DHT22;526;51.392;12.448;2023-05-09T11:47:52;22.00;72.30
1075;DHT22;526;51.392;12.448;2023-05-09T11:50:19;22.00;69.80
1075;DHT22;526;51.392;12.448;2023-05-09T11:52:46;22.10;70.60
1075;DHT22;526;51.392;12.448;2023-05-09T11:55:13;22.20;71.90
1075;DHT22;526;51.392;12.448;2023-05-09T11:57:41;22.30;70.20
1075;DHT22;526;51.392;12.448;2023-05-09T12:00:07;22.40;69.30
1075;DHT22;526;51.392;12.448;2023-05-09T12:02:35;22.40;69.50
1075;DHT22;526;51.392;12.448;2023-05-09T12:05:14;22.50;71.40
1075;DHT22;526;51.392;12.448;2023-05-09T12:07:40;22.70;69.60
1075;DHT22;526;51.392;12.448;2023-05-09T12:12:34;22.90;70.40
1075;DHT22;526;51.392;12.448;2023-05-09T12:15:06;23.00;71.90
1075;DHT22;526;51.392;12.448;2023-05-09T12:17:33;23.10;68.90
1075;DHT22;526;51.392;12.448;2023-05-09T12:19:58;23.00;68.40
1075;DHT22;526;51.392;12.448;2023-05-09T12:22:25;23.10;68.60
1075;DHT22;526;51.392;12.448;2023-05-09T12:24:51;23.10;69.30
1075;DHT22;526;51.392;12.448;2023-05-09T12:27:18;23.10;70.70
1075;DHT22;526;51.392;12.448;2023-05-09T12:29:44;23.20;68.70
1075;DHT22;526;51.392;12.448;2023-05-09T12:32:13;23.40;69.30
1075;DHT22;526;51.392;12.448;2023-05-09T12:34:39;23.60;67.60
1075;DHT22;526;51.392;12.448;2023-05-09T12:37:13;23.50;70.30
1075;DHT22;526;51.392;12.448;2023-05-09T12:39:40;23.70;67.90
1075;DHT22;526;51.392;12.448;2023-05-09T12:42:11;23.70;67.30
1075;DHT22;526;51.392;12.448;2023-05-09T12:44:36;23.70;66.80
1075;DHT22;526;51.392;12.448;2023-05-09T12:47:03;23.70;66.40
1075;DHT22;526;51.392;12.448;2023-05-09T12:49:29;23.50;66.80
1075;DHT22;526;51.392;12.448;2023-05-09T12:51:57;23.60;66.80
1075;DHT22;526;51.392;12.448;2023-05-09T12:54:25;23.70;67.50
1075;DHT22;526;51.392;12.448;2023-05-09T12:56:52;23.90;67.80
1075;DHT22;526;51.392;12.448;2023-05-09T12:59:25;24.10;66.20
1075;DHT22;526;51.392;12.448;2023-05-09T13:01:56;24.20;66.60
1075;DHT22;526;51.392;12.448;2023-05-09T13:04:23;24.20;65.90
1075;DHT22;526;51.392;12.448;2023-05-09T13:06:51;24.30;65.60
1075;DHT22;526;51.392;12.448;2023-05-09T13:09:18;24.20;64.90
1075;DHT22;526;51.392;12.448;2023-05-09T13:11:44;24.10;65.40
1075;DHT22;526;51.392;12.448;2023-05-09T13:14:10;23.90;63.90
1075;DHT22;526;51.392;12.448;2023-05-09T13:16:36;23.90;63.30
1075;DHT22;526;51.392;12.448;2023-05-09T13:19:01;23.90;64.50
1075;DHT22;526;51.392;12.448;2023-05-09T13:21:27;23.90;64.10
1075;DHT22;526;51.392;12.448;2023-05-09T13:23:52;23.90;64.80
1075;DHT22;526;51.392;12.448;2023-05-09T13:26:18;24.10;63.50
1075;DHT22;526;51.392;12.448;2023-05-09T13:28:44;24.30;63.90
1075;DHT22;526;51.392;12.448;2023-05-09T13:31:09;24.10;62.90
1075;DHT22;526;51.392;12.448;2023-05-09T13:33:35;23.90;61.60
1075;DHT22;526;51.392;12.448;2023-05-09T13:36:00;23.90;64.20
1075;DHT22;526;51.392;12.448;2023-05-09T13:38:26;24.10;63.50
1075;DHT22;526;51.392;12.448;2023-05-09T13:40:55;24.10;60.10
1075;DHT22;526;51.392;12.448;2023-05-09T13:43:21;24.20;59.00
1075;DHT22;526;51.392;12.448;2023-05-09T13:45:46;24.30;57.20
1075;DHT22;526;51.392;12.448;2023-05-09T13:48:12;24.30;54.70
1075;DHT22;526;51.392;12.448;2023-05-09T13:50:40;24.50;56.10
1075;DHT22;526;51.392;12.448;2023-05-09T13:53:05;24.70;55.10
1075;DHT22;526;51.392;12.448;2023-05-09T13:55:31;24.80;57.40
1075;DHT22;526;51.392;12.448;2023-05-09T13:57:58;25.00;57.30
1075;DHT22;526;51.392;12.448;2023-05-09T14:00:24;25.40;55.30
1075;DHT22;526;51.392;12.448;2023-05-09T14:02:51;25.40;55.30
1075;DHT22;526;51.392;12.448;2023-05-09T14:05:17;25.50;56.20
1075;DHT22;526;51.392;12.448;2023-05-09T14:07:43;25.70;55.60
1075;DHT22;526;51.392;12.448;2023-05-09T14:10:09;25.70;54.30
1075;DHT22;526;51.392;12.448;2023-05-09T14:12:35;25.80;54.90
1075;DHT22;526;51.392;12.448;2023-05-09T14:15:00;25.80;55.10
1075;DHT22;526;51.392;12.448;2023-05-09T14:17:26;25.90;54.70
1075;DHT22;526;51.392;12.448;2023-05-09T14:19:52;25.80;54.00
1075;DHT22;526;51.392;12.448;2023-05-09T14:22:17;25.80;52.80
1075;DHT22;526;51.392;12.448;2023-05-09T14:24:43;25.80;51.90
1075;DHT22;526;51.392;12.448;2023-05-09T14:27:08;25.70;51.30
1075;DHT22;526;51.392;12.448;2023-05-09T14:29:34;25.80;52.40
1075;DHT22;526;51.392;12.448;2023-05-09T14:32:01;25.90;51.30
1075;DHT22;526;51.392;12.448;2023-05-09T14:34:26;25.90;52.20
1075;DHT22;526;51.392;12.448;2023-05-09T14:36:51;25.80;51.10
1075;DHT22;526;51.392;12.448;2023-05-09T14:39:17;25.60;51.80
1075;DHT22;526;51.392;12.448;2023-05-09T14:41:43;25.80;51.70
1075;DHT22;526;51.392;12.448;2023-05-09T14:44:14;25.90;51.90
1075;DHT22;526;51.392;12.448;2023-05-09T14:46:42;25.90;53.20
1075;DHT22;526;51.392;12.448;2023-05-09T14:49:08;25.90;52.50
1075;DHT22;526;51.392;12.448;2023-05-09T14:51:40;25.80;51.40
1075;DHT22;526;51.392;12.448;2023-05-09T14:54:06;25.70;53.20
1075;DHT22;526;51.392;12.448;2023-05-09T14:56:34;25.70;52.50
1075;DHT22;526;51.392;12.448;2023-05-09T14:58:59;25.90;53.40
1075;DHT22;526;51.392;12.448;2023-05-09T15:01:27;26.10;54.10
1075;DHT22;526;51.392;12.448;2023-05-09T15:03:53;26.40;54.30
1075;DHT22;526;51.392;12.448;2023-05-09T15:06:18;26.50;52.90
1075;DHT22;526;51.392;12.448;2023-05-09T15:08:44;26.40;51.30
1075;DHT22;526;51.392;12.448;2023-05-09T15:11:10;26.40;53.00
1075;DHT22;526;51.392;12.448;2023-05-09T15:13:35;26.50;51.30
1075;DHT22;526;51.392;12.448;2023-05-09T15:16:01;26.60;52.40
1075;DHT22;526;51.392;12.448;2023-05-09T15:18:26;26.40;51.90
1075;DHT22;526;51.392;12.448;2023-05-09T15:20:54;26.20;51.70
1075;DHT22;526;51.392;12.448;2023-05-09T15:23:19;26.00;53.20
1075;DHT22;526;51.392;12.448;2023-05-09T15:25:45;25.90;53.60
1075;DHT22;526;51.392;12.448;2023-05-09T15:28:11;25.80;55.00
1075;DHT22;526;51.392;12.448;2023-05-09T15:30:37;25.80;55.00
1075;DHT22;526;51.392;12.448;2023-05-09T15:33:05;26.00;53.60
1075;DHT22;526;51.392;12.448;2023-05-09T15:35:31;26.20;53.00
1075;DHT22;526;51.392;12.448;2023-05-09T15:37:56;26.10;52.80
1075;DHT22;526;51.392;12.448;2023-05-09T15:40:22;25.90;54.20
1075;DHT22;526;51.392;12.448;2023-05-09T15:42:47;25.90;53.40
1075;DHT22;526;51.392;12.448;2023-05-09T15:45:13;26.00;54.90
1075;DHT22;526;51.392;12.448;2023-05-09T15:47:39;26.20;54.50
1075;DHT22;526;51.392;12.448;2023-05-09T15:50:06;26.20;54.40
1075;DHT22;526;51.392;12.448;2023-05-09T15:52:31;26.10;54.80
1075;DHT22;526;51.392;12.448;2023-05-09T15:54:57;26.00;54.50
1075;DHT22;526;51.392;12.448;2023-05-09T15:57:23;26.10;54.80
1075;DHT22;526;51.392;12.448;2023-05-09T15:59:49;26.20;55.20
1075;DHT22;526;51.392;12.448;2023-05-09T16:02:14;26.10;54.30
1075;DHT22;526;51.392;12.448;2023-05-09T16:04:40;26.10;54.70
1075;DHT22;526;51.392;12.448;2023-05-09T16:07:06;26.20;53.80
1075;DHT22;526;51.392;12.448;2023-05-09T16:09:32;26.20;54.00
1075;DHT22;526;51.392;12.448;2023-05-09T16:11:58;26.40;54.20
1075;DHT22;526;51.392;12.448;2023-05-09T16:14:23;26.40;53.60
1075;DHT22;526;51.392;12.448;2023-05-09T16:16:49;26.20;53.10